sensor_id;sensor_type;location;lat;lon;timestamp;P1;durP1;ratioP1;P2;durP2;ratioP2
30147;SDS011;16960;49.404;8.248;2023-03-01T00:00:00;4.97;;;3.13;;
30147;SDS011;16960;49.404;8.248;2023-03-01T00:02:28;6.77;;;3.80;;
30147;SDS011;16960;49.404;8.248;2023-03-01T00:04:55;2.83;;;2.63;;
30147;SDS011;16960;49.404;8.248;2023-03-01T00:07:23;3.87;;;3.57;;
30147;SDS011;16960;49.404;8.248;2023-03-01T00:09:50;3.30;;;3.10;;
30147;SDS011;16960;49.404;8.248;2023-03-01T00:12:17;3.10;;;2.73;;
30147;SDS011;16960;49.404;8.248;2023-03-01T00:14:44;3.37;;;3.07;;
30147;SDS011;16960;49.404;8.248;2023-03-01T00:17:11;5.50;;;3.37;;
30147;SDS011;16960;49.404;8.248;2023-03-01T00:19:38;3.70;;;2.93;;
30147;SDS011;16960;49.404;8.248;2023-03-01T00:22:05;3.53;;;3.23;;
30147;SDS011;16960;49.404;8.248;2023-03-01T00:24:33;3.67;;;3.37;;
30147;SDS011;16960;49.404;8.248;2023-03-01T00:27:00;3.77;;;3.47;;
30147;SDS011;16960;49.404;8.248;2023-03-01T00:29:27;4.00;;;3.60;;
30147;SDS011;16960;49.404;8.248;2023-03-01T00:31:54;3.37;;;3.07;;
30147;SDS011;16960;49.404;8.248;2023-03-01T00:34:21;3.43;;;3.10;;
30147;SDS011;16960;49.404;8.248;2023-03-01T00:36:48;6.80;;;3.37;;
30147;SDS011;16960;49.404;8.248;2023-03-01T00:39:15;3.50;;;3.20;;
30147;SDS011;16960;49.404;8.248;2023-03-01T00:41:43;3.17;;;2.90;;
30147;SDS011;16960;49.404;8.248;2023-03-01T00:44:10;3.63;;;3.33;;
30147;SDS011;16960;49.404;8.248;2023-03-01T00:46:37;3.70;;;3.33;;
30147;SDS011;16960;49.404;8.248;2023-03-01T00:49:04;3.83;;;3.20;;
30147;SDS011;16960;49.404;8.248;2023-03-01T00:51:31;2.90;;;2.70;;
30147;SDS011;16960;49.404;8.248;2023-03-01T00:53:59;3.57;;;3.27;;
30147;SDS011;16960;49.404;8.248;2023-03-01T00:56:28;3.87;;;3.47;;
30147;SDS011;16960;49.404;8.248;2023-03-01T00:58:56;3.40;;;3.10;;
30147;SDS011;16960;49.404;8.248;2023-03-01T01:01:24;3.47;;;3.17;;
30147;SDS011;16960;49.404;8.248;2023-03-01T01:03:53;3.57;;;3.27;;
30147;SDS011;16960;49.404;8.248;2023-03-01T01:06:21;3.47;;;2.90;;
30147;SDS011;16960;49.404;8.248;2023-03-01T01:08:50;3.47;;;3.17;;
30147;SDS011;16960;49.404;8.248;2023-03-01T01:11:18;3.23;;;2.93;;
30147;SDS011;16960;49.404;8.248;2023-03-01T01:13:46;3.63;;;3.33;;
30147;SDS011;16960;49.404;8.248;2023-03-01T01:16:16;3.83;;;3.50;;
30147;SDS011;16960;49.404;8.248;2023-03-01T01:18:43;3.27;;;2.97;;
30147;SDS011;16960;49.404;8.248;2023-03-01T01:21:11;3.77;;;3.40;;
30147;SDS011;16960;49.404;8.248;2023-03-01T01:23:41;4.00;;;3.27;;
30147;SDS011;16960;49.404;8.248;2023-03-01T01:26:09;3.00;;;2.70;;
30147;SDS011;16960;49.404;8.248;2023-03-01T01:28:37;3.20;;;2.90;;
30147;SDS011;16960;49.404;8.248;2023-03-01T01:31:05;3.73;;;3.10;;
30147;SDS011;16960;49.404;8.248;2023-03-01T01:33:34;2.87;;;2.67;;
30147;SDS011;16960;49.404;8.248;2023-03-01T01:36:02;3.77;;;3.47;;
30147;SDS011;16960;49.404;8.248;2023-03-01T01:38:30;3.20;;;3.00;;
30147;SDS011;16960;49.404;8.248;2023-03-01T01:40:57;3.83;;;3.53;;
30147;SDS011;16960;49.404;8.248;2023-03-01T01:43:26;3.23;;;3.00;;
30147;SDS011;16960;49.404;8.248;2023-03-01T01:45:55;4.00;;;3.50;;
30147;SDS011;16960;49.404;8.248;2023-03-01T01:48:27;2.70;;;2.50;;
30147;SDS011;16960;49.404;8.248;2023-03-01T01:51:07;3.23;;;2.90;;
30147;SDS011;16960;49.404;8.248;2023-03-01T01:53:38;4.37;;;3.97;;
30147;SDS011;16960;49.404;8.248;2023-03-01T01:56:06;3.30;;;3.00;;
30147;SDS011;16960;49.404;8.248;2023-03-01T01:58:35;2.80;;;2.60;;
30147;SDS011;16960;49.404;8.248;2023-03-01T02:01:03;3.73;;;3.43;;
30147;SDS011;16960;49.404;8.248;2023-03-01T02:03:31;4.33;;;3.30;;
30147;SDS011;16960;49.404;8.248;2023-03-01T02:06:03;2.87;;;2.57;;
30147;SDS011;16960;49.404;8.248;2023-03-01T02:08:38;8.07;;;3.50;;
30147;SDS011;16960;49.404;8.248;2023-03-01T02:11:08;3.40;;;3.10;;
30147;SDS011;16960;49.404;8.248;2023-03-01T02:13:36;3.77;;;3.37;;
30147;SDS011;16960;49.404;8.248;2023-03-01T02:16:04;3.50;;;3.20;;
30147;SDS011;16960;49.404;8.248;2023-03-01T02:18:34;3.33;;;3.03;;
30147;SDS011;16960;49.404;8.248;2023-03-01T02:21:05;3.50;;;3.20;;
30147;SDS011;16960;49.404;8.248;2023-03-01T02:23:42;3.43;;;3.13;;
30147;SDS011;16960;49.404;8.248;2023-03-01T02:26:11;3.57;;;3.23;;
30147;SDS011;16960;49.404;8.248;2023-03-01T02:28:45;3.00;;;2.80;;
30147;SDS011;16960;49.404;8.248;2023-03-01T02:31:14;3.67;;;3.33;;
30147;SDS011;16960;49.404;8.248;2023-03-01T02:34:00;3.20;;;2.90;;
30147;SDS011;16960;49.404;8.248;2023-03-01T02:36:30;3.70;;;3.40;;
30147;SDS011;16960;49.404;8.248;2023-03-01T02:39:02;3.27;;;2.97;;
30147;SDS011;16960;49.404;8.248;2023-03-01T02:41:32;3.60;;;3.30;;
30147;SDS011;16960;49.404;8.248;2023-03-01T02:44:03;3.17;;;2.87;;
30147;SDS011;16960;49.404;8.248;2023-03-01T02:46:30;3.10;;;2.90;;
30147;SDS011;16960;49.404;8.248;2023-03-01T02:48:58;3.83;;;3.53;;
30147;SDS011;16960;49.404;8.248;2023-03-01T02:51:27;3.10;;;2.87;;
30147;SDS011;16960;49.404;8.248;2023-03-01T02:54:09;3.27;;;2.97;;
30147;SDS011;16960;49.404;8.248;2023-03-01T02:56:42;3.80;;;3.50;;
30147;SDS011;16960;49.404;8.248;2023-03-01T02:59:14;3.30;;;2.93;;
30147;SDS011;16960;49.404;8.248;2023-03-01T03:01:42;3.20;;;3.00;;
30147;SDS011;16960;49.404;8.248;2023-03-01T03:04:10;3.17;;;2.97;;
30147;SDS011;16960;49.404;8.248;2023-03-01T03:06:41;3.40;;;3.10;;
30147;SDS011;16960;49.404;8.248;2023-03-01T03:09:09;3.87;;;3.47;;
30147;SDS011;16960;49.404;8.248;2023-03-01T03:11:36;3.13;;;2.80;;
30147;SDS011;16960;49.404;8.248;2023-03-01T03:14:04;3.40;;;3.10;;
30147;SDS011;16960;49.404;8.248;2023-03-01T03:16:39;3.50;;;3.20;;
30147;SDS011;16960;49.404;8.248;2023-03-01T03:19:06;3.03;;;2.73;;
30147;SDS011;16960;49.404;8.248;2023-03-01T03:21:33;3.43;;;3.10;;
30147;SDS011;16960;49.404;8.248;2023-03-01T03:24:01;4.07;;;3.67;;
30147;SDS011;16960;49.404;8.248;2023-03-01T03:26:28;3.37;;;3.17;;
30147;SDS011;16960;49.404;8.248;2023-03-01T03:28:55;3.47;;;3.10;;
30147;SDS011;16960;49.404;8.248;2023-03-01T03:31:22;3.90;;;3.50;;
30147;SDS011;16960;49.404;8.248;2023-03-01T03:33:51;3.97;;;3.60;;
30147;SDS011;16960;49.404;8.248;2023-03-01T03:36:18;3.20;;;3.00;;
30147;SDS011;16960;49.404;8.248;2023-03-01T03:38:46;3.80;;;3.30;;
30147;SDS011;16960;49.404;8.248;2023-03-01T03:41:13;4.20;;;3.90;;
30147;SDS011;16960;49.404;8.248;2023-03-01T03:43:41;4.20;;;3.80;;
30147;SDS011;16960;49.404;8.248;2023-03-01T03:46:09;4.40;;;3.83;;
30147;SDS011;16960;49.404;8.248;2023-03-01T03:48:37;3.80;;;3.50;;
30147;SDS011;16960;49.404;8.248;2023-03-01T03:51:06;3.90;;;3.60;;
30147;SDS011;16960;49.404;8.248;2023-03-01T03:53:36;3.63;;;3.33;;
30147;SDS011;16960;49.404;8.248;2023-03-01T03:56:03;3.80;;;3.50;;
30147;SDS011;16960;49.404;8.248;2023-03-01T03:58:30;3.50;;;3.20;;
30147;SDS011;16960;49.404;8.248;2023-03-01T04:00:57;3.73;;;3.23;;
30147;SDS011;16960;49.404;8.248;2023-03-01T04:03:25;3.80;;;3.50;;
30147;SDS011;16960;49.404;8.248;2023-03-01T04:05:54;3.47;;;3.17;;
30147;SDS011;16960;49.404;8.248;2023-03-01T04:08:24;3.30;;;3.00;;
30147;SDS011;16960;49.404;8.248;2023-03-01T04:10:52;3.10;;;2.90;;
30147;SDS011;16960;49.404;8.248;2023-03-01T04:13:23;3.17;;;2.90;;
30147;SDS011;16960;49.404;8.248;2023-03-01T04:15:50;3.63;;;3.33;;
30147;SDS011;16960;49.404;8.248;2023-03-01T04:18:19;2.90;;;2.70;;
30147;SDS011;16960;49.404;8.248;2023-03-01T04:20:47;3.50;;;3.20;;
30147;SDS011;16960;49.404;8.248;2023-03-01T04:23:17;3.67;;;3.37;;
30147;SDS011;16960;49.404;8.248;2023-03-01T04:25:47;3.50;;;3.13;;
30147;SDS011;16960;49.404;8.248;2023-03-01T04:28:20;3.50;;;3.20;;
30147;SDS011;16960;49.404;8.248;2023-03-01T04:30:49;4.53;;;3.00;;
30147;SDS011;16960;49.404;8.248;2023-03-01T04:33:16;3.50;;;3.20;;
30147;SDS011;16960;49.404;8.248;2023-03-01T04:35:44;3.47;;;3.00;;
30147;SDS011;16960;49.404;8.248;2023-03-01T04:38:14;3.43;;;3.13;;
30147;SDS011;16960;49.404;8.248;2023-03-01T04:40:41;3.63;;;3.33;;
30147;SDS011;16960;49.404;8.248;2023-03-01T04:43:09;3.37;;;3.07;;
30147;SDS011;16960;49.404;8.248;2023-03-01T04:45:39;3.40;;;3.10;;
30147;SDS011;16960;49.404;8.248;2023-03-01T04:48:06;3.63;;;3.33;;
30147;SDS011;16960;49.404;8.248;2023-03-01T04:50:33;3.07;;;2.83;;
30147;SDS011;16960;49.404;8.248;2023-03-01T04:53:01;3.87;;;3.47;;
30147;SDS011;16960;49.404;8.248;2023-03-01T04:55:28;3.97;;;3.57;;
30147;SDS011;16960;49.404;8.248;2023-03-01T04:57:56;3.40;;;3.13;;
30147;SDS011;16960;49.404;8.248;2023-03-01T05:00:24;3.70;;;3.40;;
30147;SDS011;16960;49.404;8.248;2023-03-01T05:02:52;3.50;;;3.23;;
30147;SDS011;16960;49.404;8.248;2023-03-01T05:05:20;3.90;;;3.07;;
30147;SDS011;16960;49.404;8.248;2023-03-01T05:07:50;3.93;;;3.53;;
30147;SDS011;16960;49.404;8.248;2023-03-01T05:10:19;4.20;;;3.90;;
30147;SDS011;16960;49.404;8.248;2023-03-01T05:12:46;3.20;;;2.90;;
30147;SDS011;16960;49.404;8.248;2023-03-01T05:15:13;3.57;;;3.27;;
30147;SDS011;16960;49.404;8.248;2023-03-01T05:17:41;3.63;;;3.33;;
30147;SDS011;16960;49.404;8.248;2023-03-01T05:20:08;3.57;;;3.13;;
30147;SDS011;16960;49.404;8.248;2023-03-01T05:22:36;3.70;;;3.37;;
30147;SDS011;16960;49.404;8.248;2023-03-01T05:25:04;3.10;;;2.90;;
30147;SDS011;16960;49.404;8.248;2023-03-01T05:27:33;3.63;;;3.33;;
30147;SDS011;16960;49.404;8.248;2023-03-01T05:30:00;3.63;;;3.33;;
30147;SDS011;16960;49.404;8.248;2023-03-01T05:32:38;3.23;;;2.93;;
30147;SDS011;16960;49.404;8.248;2023-03-01T05:35:09;3.83;;;3.03;;
30147;SDS011;16960;49.404;8.248;2023-03-01T05:37:38;3.40;;;3.13;;
30147;SDS011;16960;49.404;8.248;2023-03-01T05:40:09;4.47;;;3.90;;
30147;SDS011;16960;49.404;8.248;2023-03-01T05:42:42;3.30;;;3.00;;
30147;SDS011;16960;49.404;8.248;2023-03-01T05:45:09;3.10;;;2.80;;
30147;SDS011;16960;49.404;8.248;2023-03-01T05:47:37;4.13;;;3.73;;
30147;SDS011;16960;49.404;8.248;2023-03-01T05:50:10;4.60;;;3.77;;
30147;SDS011;16960;49.404;8.248;2023-03-01T05:52:38;5.07;;;3.37;;
30147;SDS011;16960;49.404;8.248;2023-03-01T05:55:06;4.40;;;3.50;;
30147;SDS011;16960;49.404;8.248;2023-03-01T05:57:33;4.13;;;3.73;;
30147;SDS011;16960;49.404;8.248;2023-03-01T06:00:00;3.50;;;3.20;;
30147;SDS011;16960;49.404;8.248;2023-03-01T06:02:28;3.13;;;2.93;;
30147;SDS011;16960;49.404;8.248;2023-03-01T06:04:55;3.90;;;3.60;;
30147;SDS011;16960;49.404;8.248;2023-03-01T06:07:23;4.07;;;3.73;;
30147;SDS011;16960;49.404;8.248;2023-03-01T06:09:50;3.33;;;3.03;;
30147;SDS011;16960;49.404;8.248;2023-03-01T06:12:17;6.90;;;3.00;;
30147;SDS011;16960;49.404;8.248;2023-03-01T06:14:45;3.43;;;3.13;;
30147;SDS011;16960;49.404;8.248;2023-03-01T06:17:13;3.77;;;3.47;;
30147;SDS011;16960;49.404;8.248;2023-03-01T06:19:40;3.10;;;2.90;;
30147;SDS011;16960;49.404;8.248;2023-03-01T06:22:07;3.53;;;3.23;;
30147;SDS011;16960;49.404;8.248;2023-03-01T06:24:35;3.07;;;2.87;;
30147;SDS011;16960;49.404;8.248;2023-03-01T06:27:02;4.20;;;3.80;;
30147;SDS011;16960;49.404;8.248;2023-03-01T06:29:29;3.63;;;3.33;;
30147;SDS011;16960;49.404;8.248;2023-03-01T06:31:56;3.93;;;3.63;;
30147;SDS011;16960;49.404;8.248;2023-03-01T06:34:23;4.03;;;3.63;;
30147;SDS011;16960;49.404;8.248;2023-03-01T06:36:50;3.73;;;3.43;;
30147;SDS011;16960;49.404;8.248;2023-03-01T06:39:17;4.20;;;3.80;;
30147;SDS011;16960;49.404;8.248;2023-03-01T06:41:45;5.10;;;3.87;;
30147;SDS011;16960;49.404;8.248;2023-03-01T06:44:12;10.80;;;4.30;;
30147;SDS011;16960;49.404;8.248;2023-03-01T06:46:40;4.67;;;3.70;;
30147;SDS011;16960;49.404;8.248;2023-03-01T06:49:07;5.40;;;4.90;;
30147;SDS011;16960;49.404;8.248;2023-03-01T06:51:34;5.73;;;5.00;;
30147;SDS011;16960;49.404;8.248;2023-03-01T06:54:02;5.80;;;4.70;;
30147;SDS011;16960;49.404;8.248;2023-03-01T06:56:29;6.30;;;4.80;;
30147;SDS011;16960;49.404;8.248;2023-03-01T06:58:58;5.83;;;5.27;;
30147;SDS011;16960;49.404;8.248;2023-03-01T07:01:25;6.70;;;4.30;;
30147;SDS011;16960;49.404;8.248;2023-03-01T07:03:52;5.47;;;4.97;;
30147;SDS011;16960;49.404;8.248;2023-03-01T07:06:19;5.20;;;4.73;;
30147;SDS011;16960;49.404;8.248;2023-03-01T07:08:46;4.90;;;4.50;;
30147;SDS011;16960;49.404;8.248;2023-03-01T07:11:13;5.57;;;4.97;;
30147;SDS011;16960;49.404;8.248;2023-03-01T07:13:40;5.20;;;4.70;;
30147;SDS011;16960;49.404;8.248;2023-03-01T07:16:09;6.80;;;5.90;;
30147;SDS011;16960;49.404;8.248;2023-03-01T07:18:36;4.90;;;4.50;;
30147;SDS011;16960;49.404;8.248;2023-03-01T07:21:03;8.17;;;6.03;;
30147;SDS011;16960;49.404;8.248;2023-03-01T07:23:31;6.00;;;5.27;;
30147;SDS011;16960;49.404;8.248;2023-03-01T07:25:58;5.57;;;5.07;;
30147;SDS011;16960;49.404;8.248;2023-03-01T07:28:26;4.93;;;4.53;;
30147;SDS011;16960;49.404;8.248;2023-03-01T07:30:53;5.70;;;4.93;;
30147;SDS011;16960;49.404;8.248;2023-03-01T07:33:22;5.20;;;4.80;;
30147;SDS011;16960;49.404;8.248;2023-03-01T07:35:55;5.87;;;5.40;;
30147;SDS011;16960;49.404;8.248;2023-03-01T07:38:22;5.77;;;5.37;;
30147;SDS011;16960;49.404;8.248;2023-03-01T07:40:49;6.83;;;5.80;;
30147;SDS011;16960;49.404;8.248;2023-03-01T07:43:16;6.63;;;6.13;;
30147;SDS011;16960;49.404;8.248;2023-03-01T07:45:43;5.50;;;5.00;;
30147;SDS011;16960;49.404;8.248;2023-03-01T07:48:10;6.40;;;5.80;;
30147;SDS011;16960;49.404;8.248;2023-03-01T07:50:39;6.90;;;5.90;;
30147;SDS011;16960;49.404;8.248;2023-03-01T07:53:05;6.13;;;5.63;;
30147;SDS011;16960;49.404;8.248;2023-03-01T07:55:32;6.60;;;6.00;;
30147;SDS011;16960;49.404;8.248;2023-03-01T07:57:59;6.57;;;5.97;;
30147;SDS011;16960;49.404;8.248;2023-03-01T08:00:26;6.20;;;5.70;;
30147;SDS011;16960;49.404;8.248;2023-03-01T08:02:53;6.27;;;5.67;;
30147;SDS011;16960;49.404;8.248;2023-03-01T08:05:20;7.00;;;6.40;;
30147;SDS011;16960;49.404;8.248;2023-03-01T08:07:49;6.23;;;5.73;;
30147;SDS011;16960;49.404;8.248;2023-03-01T08:10:16;6.17;;;5.67;;
30147;SDS011;16960;49.404;8.248;2023-03-01T08:12:43;6.40;;;5.90;;
30147;SDS011;16960;49.404;8.248;2023-03-01T08:15:10;6.57;;;5.97;;
30147;SDS011;16960;49.404;8.248;2023-03-01T08:17:37;6.20;;;5.70;;
30147;SDS011;16960;49.404;8.248;2023-03-01T08:20:05;6.50;;;5.60;;
30147;SDS011;16960;49.404;8.248;2023-03-01T08:22:32;6.50;;;5.80;;
30147;SDS011;16960;49.404;8.248;2023-03-01T08:25:01;6.30;;;5.70;;
30147;SDS011;16960;49.404;8.248;2023-03-01T08:27:28;7.43;;;6.73;;
30147;SDS011;16960;49.404;8.248;2023-03-01T08:29:54;5.80;;;5.30;;
30147;SDS011;16960;49.404;8.248;2023-03-01T08:32:21;7.40;;;6.70;;
30147;SDS011;16960;49.404;8.248;2023-03-01T08:34:48;6.93;;;6.33;;
30147;SDS011;16960;49.404;8.248;2023-03-01T08:37:15;6.83;;;6.23;;
30147;SDS011;16960;49.404;8.248;2023-03-01T08:39:42;6.90;;;6.30;;
30147;SDS011;16960;49.404;8.248;2023-03-01T08:42:10;6.77;;;6.20;;
30147;SDS011;16960;49.404;8.248;2023-03-01T08:44:37;6.60;;;5.97;;
30147;SDS011;16960;49.404;8.248;2023-03-01T08:47:04;6.53;;;5.93;;
30147;SDS011;16960;49.404;8.248;2023-03-01T08:49:31;6.43;;;5.83;;
30147;SDS011;16960;49.404;8.248;2023-03-01T08:51:58;7.00;;;6.30;;
30147;SDS011;16960;49.404;8.248;2023-03-01T08:54:26;7.57;;;6.23;;
30147;SDS011;16960;49.404;8.248;2023-03-01T08:56:53;7.30;;;6.23;;
30147;SDS011;16960;49.404;8.248;2023-03-01T08:59:21;7.17;;;6.57;;
30147;SDS011;16960;49.404;8.248;2023-03-01T09:01:48;6.17;;;5.57;;
30147;SDS011;16960;49.404;8.248;2023-03-01T09:04:15;6.83;;;6.23;;
30147;SDS011;16960;49.404;8.248;2023-03-01T09:06:42;6.57;;;6.07;;
30147;SDS011;16960;49.404;8.248;2023-03-01T09:09:12;6.67;;;6.07;;
30147;SDS011;16960;49.404;8.248;2023-03-01T09:11:41;6.27;;;5.67;;
30147;SDS011;16960;49.404;8.248;2023-03-01T09:14:08;7.50;;;6.03;;
30147;SDS011;16960;49.404;8.248;2023-03-01T09:16:36;6.97;;;6.33;;
30147;SDS011;16960;49.404;8.248;2023-03-01T09:19:05;7.20;;;6.50;;
30147;SDS011;16960;49.404;8.248;2023-03-01T09:21:32;6.60;;;6.00;;
30147;SDS011;16960;49.404;8.248;2023-03-01T09:23:59;6.20;;;5.53;;
30147;SDS011;16960;49.404;8.248;2023-03-01T09:26:26;6.83;;;6.20;;
30147;SDS011;16960;49.404;8.248;2023-03-01T09:28:53;7.63;;;7.03;;
30147;SDS011;16960;49.404;8.248;2023-03-01T09:31:22;7.30;;;6.60;;
30147;SDS011;16960;49.404;8.248;2023-03-01T09:33:52;6.97;;;6.37;;
30147;SDS011;16960;49.404;8.248;2023-03-01T09:36:21;7.50;;;6.80;;
30147;SDS011;16960;49.404;8.248;2023-03-01T09:38:50;6.80;;;6.20;;
30147;SDS011;16960;49.404;8.248;2023-03-01T09:41:22;7.77;;;7.00;;
30147;SDS011;16960;49.404;8.248;2023-03-01T09:44:01;8.60;;;7.80;;
30147;SDS011;16960;49.404;8.248;2023-03-01T09:46:36;7.53;;;6.73;;
30147;SDS011;16960;49.404;8.248;2023-03-01T09:49:10;7.77;;;6.97;;
30147;SDS011;16960;49.404;8.248;2023-03-01T09:51:42;7.23;;;6.43;;
30147;SDS011;16960;49.404;8.248;2023-03-01T09:54:14;7.27;;;6.47;;
30147;SDS011;16960;49.404;8.248;2023-03-01T09:56:41;8.00;;;7.27;;
30147;SDS011;16960;49.404;8.248;2023-03-01T09:59:21;7.07;;;6.43;;
30147;SDS011;16960;49.404;8.248;2023-03-01T10:01:54;7.53;;;6.70;;
30147;SDS011;16960;49.404;8.248;2023-03-01T10:04:28;8.40;;;7.10;;
30147;SDS011;16960;49.404;8.248;2023-03-01T10:07:10;8.13;;;7.33;;
30147;SDS011;16960;49.404;8.248;2023-03-01T10:09:47;8.03;;;7.30;;
30147;SDS011;16960;49.404;8.248;2023-03-01T10:12:15;7.57;;;6.80;;
30147;SDS011;16960;49.404;8.248;2023-03-01T10:14:46;7.47;;;6.73;;
30147;SDS011;16960;49.404;8.248;2023-03-01T10:17:24;7.50;;;6.47;;
30147;SDS011;16960;49.404;8.248;2023-03-01T10:19:57;6.53;;;5.83;;
30147;SDS011;16960;49.404;8.248;2023-03-01T10:22:42;7.47;;;6.77;;
30147;SDS011;16960;49.404;8.248;2023-03-01T10:25:14;7.33;;;6.63;;
30147;SDS011;16960;49.404;8.248;2023-03-01T10:27:45;9.57;;;6.53;;
30147;SDS011;16960;49.404;8.248;2023-03-01T10:30:29;7.50;;;6.80;;
30147;SDS011;16960;49.404;8.248;2023-03-01T10:33:03;6.53;;;5.93;;
30147;SDS011;16960;49.404;8.248;2023-03-01T10:35:41;6.43;;;5.87;;
30147;SDS011;16960;49.404;8.248;2023-03-01T10:38:08;5.47;;;4.97;;
30147;SDS011;16960;49.404;8.248;2023-03-01T10:40:49;8.13;;;5.70;;
30147;SDS011;16960;49.404;8.248;2023-03-01T10:43:17;6.67;;;6.07;;
30147;SDS011;16960;49.404;8.248;2023-03-01T10:45:45;6.57;;;5.10;;
30147;SDS011;16960;49.404;8.248;2023-03-01T10:48:13;5.30;;;4.90;;
30147;SDS011;16960;49.404;8.248;2023-03-01T10:50:43;6.17;;;5.57;;
30147;SDS011;16960;49.404;8.248;2023-03-01T10:53:24;6.60;;;6.00;;
30147;SDS011;16960;49.404;8.248;2023-03-01T10:56:01;5.80;;;5.30;;
30147;SDS011;16960;49.404;8.248;2023-03-01T10:58:31;5.67;;;5.17;;
30147;SDS011;16960;49.404;8.248;2023-03-01T11:01:00;6.00;;;5.50;;
30147;SDS011;16960;49.404;8.248;2023-03-01T11:03:32;6.03;;;5.43;;
30147;SDS011;16960;49.404;8.248;2023-03-01T11:06:03;5.73;;;5.23;;
30147;SDS011;16960;49.404;8.248;2023-03-01T11:08:34;6.57;;;5.00;;
30147;SDS011;16960;49.404;8.248;2023-03-01T11:13:51;5.43;;;4.93;;
30147;SDS011;16960;49.404;8.248;2023-03-01T11:16:24;5.67;;;5.17;;
30147;SDS011;16960;49.404;8.248;2023-03-01T11:18:57;6.00;;;5.40;;
30147;SDS011;16960;49.404;8.248;2023-03-01T11:21:28;5.67;;;5.17;;
30147;SDS011;16960;49.404;8.248;2023-03-01T11:23:59;5.23;;;4.83;;
30147;SDS011;16960;49.404;8.248;2023-03-01T11:26:27;7.37;;;5.73;;
30147;SDS011;16960;49.404;8.248;2023-03-01T11:28:58;5.80;;;5.30;;
30147;SDS011;16960;49.404;8.248;2023-03-01T11:31:30;5.80;;;5.30;;
30147;SDS011;16960;49.404;8.248;2023-03-01T11:34:00;5.80;;;4.90;;
30147;SDS011;16960;49.404;8.248;2023-03-01T11:36:41;5.20;;;4.80;;
30147;SDS011;16960;49.404;8.248;2023-03-01T11:39:17;5.57;;;5.07;;
30147;SDS011;16960;49.404;8.248;2023-03-01T11:41:52;5.50;;;5.10;;
30147;SDS011;16960;49.404;8.248;2023-03-01T11:44:28;5.17;;;4.70;;
30147;SDS011;16960;49.404;8.248;2023-03-01T11:47:08;5.00;;;4.60;;
30147;SDS011;16960;49.404;8.248;2023-03-01T11:49:51;5.60;;;5.10;;
30147;SDS011;16960;49.404;8.248;2023-03-01T11:52:44;4.70;;;4.30;;
30147;SDS011;16960;49.404;8.248;2023-03-01T11:55:19;5.93;;;5.40;;
30147;SDS011;16960;49.404;8.248;2023-03-01T11:58:09;8.53;;;5.80;;
30147;SDS011;16960;49.404;8.248;2023-03-01T12:00:49;6.30;;;5.00;;
30147;SDS011;16960;49.404;8.248;2023-03-01T12:03:30;5.40;;;4.90;;
30147;SDS011;16960;49.404;8.248;2023-03-01T12:06:17;5.27;;;4.67;;
30147;SDS011;16960;49.404;8.248;2023-03-01T12:08:57;5.30;;;4.80;;
30147;SDS011;16960;49.404;8.248;2023-03-01T12:11:36;5.33;;;4.80;;
30147;SDS011;16960;49.404;8.248;2023-03-01T12:14:17;5.40;;;4.90;;
30147;SDS011;16960;49.404;8.248;2023-03-01T12:17:02;5.07;;;4.60;;
30147;SDS011;16960;49.404;8.248;2023-03-01T12:19:39;5.30;;;4.90;;
30147;SDS011;16960;49.404;8.248;2023-03-01T12:22:29;6.07;;;5.50;;
30147;SDS011;16960;49.404;8.248;2023-03-01T12:25:05;7.20;;;6.50;;
30147;SDS011;16960;49.404;8.248;2023-03-01T12:30:36;7.20;;;6.50;;
30147;SDS011;16960;49.404;8.248;2023-03-01T12:33:17;9.10;;;8.10;;
30147;SDS011;16960;49.404;8.248;2023-03-01T12:35:54;11.03;;;9.20;;
30147;SDS011;16960;49.404;8.248;2023-03-01T12:38:46;9.90;;;8.90;;
30147;SDS011;16960;49.404;8.248;2023-03-01T12:41:35;9.13;;;8.33;;
30147;SDS011;16960;49.404;8.248;2023-03-01T12:44:15;9.73;;;8.73;;
30147;SDS011;16960;49.404;8.248;2023-03-01T12:46:59;9.50;;;8.60;;
30147;SDS011;16960;49.404;8.248;2023-03-01T12:49:38;10.20;;;8.20;;
30147;SDS011;16960;49.404;8.248;2023-03-01T12:52:10;10.13;;;9.13;;
30147;SDS011;16960;49.404;8.248;2023-03-01T12:54:40;9.93;;;8.93;;
30147;SDS011;16960;49.404;8.248;2023-03-01T12:57:12;9.50;;;8.57;;
30147;SDS011;16960;49.404;8.248;2023-03-01T12:59:46;9.03;;;8.13;;
30147;SDS011;16960;49.404;8.248;2023-03-01T13:02:22;10.37;;;9.27;;
30147;SDS011;16960;49.404;8.248;2023-03-01T13:04:54;9.93;;;8.87;;
30147;SDS011;16960;49.404;8.248;2023-03-01T13:07:29;9.10;;;8.27;;
30147;SDS011;16960;49.404;8.248;2023-03-01T13:10:05;13.07;;;8.40;;
30147;SDS011;16960;49.404;8.248;2023-03-01T13:12:51;9.67;;;8.10;;
30147;SDS011;16960;49.404;8.248;2023-03-01T13:15:32;7.20;;;6.60;;
30147;SDS011;16960;49.404;8.248;2023-03-01T13:18:01;8.63;;;7.00;;
30147;SDS011;16960;49.404;8.248;2023-03-01T13:20:31;7.07;;;6.40;;
30147;SDS011;16960;49.404;8.248;2023-03-01T13:23:21;7.27;;;6.33;;
30147;SDS011;16960;49.404;8.248;2023-03-01T13:26:02;11.50;;;6.73;;
30147;SDS011;16960;49.404;8.248;2023-03-01T13:28:52;6.83;;;6.23;;
30147;SDS011;16960;49.404;8.248;2023-03-01T13:34:45;6.93;;;6.33;;
30147;SDS011;16960;49.404;8.248;2023-03-01T13:37:21;7.33;;;6.63;;
30147;SDS011;16960;49.404;8.248;2023-03-01T13:39:51;7.30;;;6.70;;
30147;SDS011;16960;49.404;8.248;2023-03-01T13:42:35;7.60;;;6.40;;
30147;SDS011;16960;49.404;8.248;2023-03-01T13:45:20;6.53;;;6.03;;
30147;SDS011;16960;49.404;8.248;2023-03-01T13:47:54;6.43;;;5.80;;
30147;SDS011;16960;49.404;8.248;2023-03-01T13:50:24;6.33;;;5.73;;
30147;SDS011;16960;49.404;8.248;2023-03-01T13:52:54;6.50;;;5.90;;
30147;SDS011;16960;49.404;8.248;2023-03-01T13:55:26;6.63;;;5.93;;
30147;SDS011;16960;49.404;8.248;2023-03-01T13:57:59;7.63;;;6.13;;
30147;SDS011;16960;49.404;8.248;2023-03-01T14:00:30;6.67;;;6.07;;
30147;SDS011;16960;49.404;8.248;2023-03-01T14:03:05;6.07;;;5.50;;
30147;SDS011;16960;49.404;8.248;2023-03-01T14:05:35;6.43;;;5.73;;
30147;SDS011;16960;49.404;8.248;2023-03-01T14:08:03;6.70;;;6.10;;
30147;SDS011;16960;49.404;8.248;2023-03-01T14:10:32;6.97;;;6.27;;
30147;SDS011;16960;49.404;8.248;2023-03-01T14:13:10;6.50;;;5.80;;
30147;SDS011;16960;49.404;8.248;2023-03-01T14:15:56;6.63;;;6.10;;
30147;SDS011;16960;49.404;8.248;2023-03-01T14:18:32;6.10;;;5.60;;
30147;SDS011;16960;49.404;8.248;2023-03-01T14:21:07;6.07;;;5.50;;
30147;SDS011;16960;49.404;8.248;2023-03-01T14:23:34;6.43;;;5.83;;
30147;SDS011;16960;49.404;8.248;2023-03-01T14:26:07;6.30;;;5.80;;
30147;SDS011;16960;49.404;8.248;2023-03-01T14:28:37;6.20;;;5.70;;
30147;SDS011;16960;49.404;8.248;2023-03-01T14:34:00;6.77;;;5.63;;
30147;SDS011;16960;49.404;8.248;2023-03-01T14:36:27;6.13;;;5.57;;
30147;SDS011;16960;49.404;8.248;2023-03-01T14:38:56;6.50;;;5.90;;
30147;SDS011;16960;49.404;8.248;2023-03-01T14:41:29;6.97;;;5.87;;
30147;SDS011;16960;49.404;8.248;2023-03-01T14:44:00;7.23;;;6.00;;
30147;SDS011;16960;49.404;8.248;2023-03-01T14:46:29;7.20;;;6.10;;
30147;SDS011;16960;49.404;8.248;2023-03-01T14:49:01;6.97;;;6.10;;
30147;SDS011;16960;49.404;8.248;2023-03-01T14:51:30;6.37;;;5.77;;
30147;SDS011;16960;49.404;8.248;2023-03-01T14:54:01;6.20;;;5.50;;
30147;SDS011;16960;49.404;8.248;2023-03-01T14:56:28;5.70;;;5.17;;
30147;SDS011;16960;49.404;8.248;2023-03-01T14:59:10;5.70;;;5.10;;
30147;SDS011;16960;49.404;8.248;2023-03-01T15:01:40;5.67;;;5.17;;
30147;SDS011;16960;49.404;8.248;2023-03-01T15:04:09;6.00;;;5.40;;
30147;SDS011;16960;49.404;8.248;2023-03-01T15:06:39;6.00;;;5.40;;
30147;SDS011;16960;49.404;8.248;2023-03-01T15:09:07;5.40;;;4.87;;
30147;SDS011;16960;49.404;8.248;2023-03-01T15:11:41;5.73;;;5.00;;
30147;SDS011;16960;49.404;8.248;2023-03-01T15:14:28;5.90;;;5.30;;
30147;SDS011;16960;49.404;8.248;2023-03-01T15:17:13;6.10;;;5.33;;
30147;SDS011;16960;49.404;8.248;2023-03-01T15:19:50;5.53;;;4.90;;